Coronis — V7FH8 — position and weather

sailwx.info

Track history (hours):
 
Tides and Currents Weather Stations Pressure Air Temp Water Temp Dewpoint Dewpoint Depression Visibility Wind Speed Wind Dir Waves Ship Positions

Coronis

Last reported at 2018-Mar-11 07:22 UTC. Time now 2018-Apr-20 05:11 UTC.
Position N 16°29' W 062°03'.
Warning: this ship's position is 39 days out of date.

Length 225 m; draft 7.8 m.

Type: Cargo ship. MMSI: 538005598.

Date/timePositionNaut miles runAvg speedWind from/ knotsBaromVisibWave heightAir tempDewpointWater temp
2018-Mar-11 07:22N 16°29' W 062°03'514.1
2018-Mar-11 07:00N 16°31' W 061°58'914.4
2018-Mar-11 06:22N 16°35' W 061°50'514.4
2018-Mar-11 06:00N 16°37' W 061°45'714.3
2018-Mar-11 05:30N 16°39' W 061°37'714.1
2018-Mar-11 05:00N 16°41' W 061°30'713.6
2018-Mar-11 04:30N 16°43' W 061°23'713.4
2018-Mar-11 04:00N 16°44' W 061°17'713.3
2018-Mar-11 03:30N 16°46' W 061°10'713.4
2018-Mar-11 03:00N 16°48' W 061°03'713.2
2018-Mar-11 02:29N 16°49' W 060°56'  
Track history (hours):
 
Tides and Currents Weather Stations Pressure Air Temp Water Temp Dewpoint Dewpoint Depression Visibility Wind Speed Wind Dir Waves Ship Positions

Coronis

Last reported at 2018-Mar-11 07:22 UTC. Time now 2018-Apr-20 05:11 UTC.
Position N 16°29' W 062°03'.
Warning: this ship's position is 39 days out of date.

Length 225 m; draft 7.8 m.

Type: Cargo ship. MMSI: 538005598.

Date/timePositionNaut miles runAvg speedWind from/ knotsBaromVisibWave heightAir tempDewpointWater temp
2018-Mar-11 07:22N 16°29' W 062°03'514.1
2018-Mar-11 07:00N 16°31' W 061°58'914.4
2018-Mar-11 06:22N 16°35' W 061°50'514.4
2018-Mar-11 06:00N 16°37' W 061°45'714.3
2018-Mar-11 05:30N 16°39' W 061°37'714.1
2018-Mar-11 05:00N 16°41' W 061°30'713.6
2018-Mar-11 04:30N 16°43' W 061°23'713.4
2018-Mar-11 04:00N 16°44' W 061°17'713.3
2018-Mar-11 03:30N 16°46' W 061°10'713.4
2018-Mar-11 03:00N 16°48' W 061°03'713.2
2018-Mar-11 02:29N 16°49' W 060°56'  

Dump ship's entire track history